4M9 weather

Corning Municipal Airport
Corning, Arkansas, United States

Public forecast

Using degrees Fahrenheit for public forecast. Weather courtesy of forecast.io.

METAR (pilot weather report)

Retrieved 2019/06/16 19:35 UTC (0 seconds ago):

K4M9 161935Z AUTO 18014G19KT FEW035 32/25 A2983 RMK AO2 PWINO

TAF (pilot weather forecast)

Closest forecast is Jonesboro Municipal Airport, 34.4 nm (63.7 km) S. Retrieved 2019/06/16 18:24 UTC (47 minutes ago):

TAF KJBR 161723Z 1618/1718 20014G22KT P6SM BKN030 FM162000 22015G22KT P6SM VCTS BKN035CB OVC150 FM170100 21007KT P6SM VCSH SCT050 BKN200 FM170600 20005KT P6SM BKN200 FM171300 19009KT P6SM BKN025 FM171600 20011KT P6SM VCSH BKN035